createdAt,value
2023-02-11T00:00:42.280Z,54.50
2023-02-11T00:03:09.729Z,56.50
2023-02-11T00:05:36.516Z,53.25
2023-02-11T00:08:03.247Z,50.75
2023-02-11T00:10:29.847Z,54.75
2023-02-11T00:12:56.628Z,50.25
2023-02-11T00:15:23.393Z,52.25
2023-02-11T00:17:50.039Z,51.00
2023-02-11T00:20:16.768Z,40.00
2023-02-11T00:22:43.777Z,52.25
2023-02-11T00:25:10.535Z,51.75
2023-02-11T00:27:37.561Z,52.25
2023-02-11T00:30:05.442Z,50.50
2023-02-11T00:32:32.796Z,51.00
2023-02-11T00:34:59.386Z,50.75
2023-02-11T00:37:26.071Z,52.00
2023-02-11T00:39:52.628Z,47.75
2023-02-11T00:42:19.328Z,50.25
2023-02-11T00:44:46.006Z,49.75
2023-02-11T00:47:12.725Z,50.25
2023-02-11T00:49:40.472Z,51.75
2023-02-11T00:52:07.244Z,49.00
2023-02-11T00:54:33.872Z,49.25
2023-02-11T00:57:00.541Z,50.75
2023-02-11T00:59:27.344Z,52.00
2023-02-11T01:01:53.993Z,50.25
2023-02-11T01:04:20.557Z,52.75
2023-02-11T01:06:48.412Z,54.75
2023-02-11T01:09:15.034Z,53.25
2023-02-11T01:11:41.632Z,52.25
2023-02-11T01:14:08.426Z,51.25
2023-02-11T01:16:35.257Z,51.75
2023-02-11T01:19:01.884Z,53.00
2023-02-11T01:21:28.514Z,48.75
2023-02-11T01:23:55.091Z,52.25
2023-02-11T01:26:21.748Z,52.50
2023-02-11T01:28:48.399Z,52.75
2023-02-11T01:31:15.456Z,51.75
2023-02-11T01:33:42.215Z,51.00
2023-02-11T01:36:09.528Z,51.75
2023-02-11T01:38:36.785Z,46.00
2023-02-11T01:41:07.084Z,51.75
2023-02-11T01:43:42.922Z,49.25
2023-02-11T01:46:33.255Z,49.75
2023-02-11T01:49:03.042Z,50.00
2023-02-11T01:52:05.623Z,51.75
2023-02-11T01:54:54.845Z,46.25
2023-02-11T01:57:26.109Z,49.00
2023-02-11T02:00:08.496Z,0.00
2023-02-11T02:03:07.826Z,46.00
2023-02-11T02:05:51.996Z,46.75
2023-02-11T02:08:43.046Z,45.75
2023-02-11T02:11:10.357Z,47.00
2023-02-11T02:13:37.376Z,48.50
2023-02-11T02:16:13.266Z,48.25
2023-02-11T02:18:51.627Z,48.50
2023-02-11T02:21:37.046Z,46.25
2023-02-11T02:24:03.588Z,46.75
2023-02-11T02:26:45.419Z,46.75
2023-02-11T02:29:17.901Z,47.50
2023-02-11T02:32:18.265Z,48.50
2023-02-11T02:34:57.073Z,47.00
2023-02-11T02:37:49.743Z,45.00
2023-02-11T02:40:23.931Z,46.50
2023-02-11T02:42:51.610Z,48.00
2023-02-11T02:45:19.347Z,44.25
2023-02-11T02:47:46.133Z,45.00
2023-02-11T02:50:17.552Z,46.50
2023-02-11T02:53:03.961Z,46.75
2023-02-11T02:56:05.241Z,46.00
2023-02-11T02:59:02.453Z,43.25
2023-02-11T03:01:33.267Z,46.00
2023-02-11T03:04:40.977Z,43.25
2023-02-11T03:07:21.301Z,46.25
2023-02-11T03:10:03.881Z,45.00
2023-02-11T03:12:32.617Z,46.00
2023-02-11T03:15:01.511Z,47.25
2023-02-11T03:17:29.660Z,45.50
2023-02-11T03:19:58.929Z,47.50
2023-02-11T03:22:30.497Z,47.25
2023-02-11T03:24:57.280Z,49.25
2023-02-11T03:27:30.597Z,47.75
2023-02-11T03:30:06.309Z,49.75
2023-02-11T03:32:37.902Z,46.00
2023-02-11T03:35:32.897Z,47.00
2023-02-11T03:38:07.423Z,47.25
2023-02-11T03:40:39.409Z,47.25
2023-02-11T03:43:17.352Z,48.50
2023-02-11T03:45:46.666Z,49.00
2023-02-11T03:48:22.231Z,45.50
2023-02-11T03:50:51.301Z,48.50
2023-02-11T03:53:19.201Z,49.00
2023-02-11T03:55:48.655Z,48.25
2023-02-11T03:58:15.523Z,43.50
2023-02-11T04:00:43.756Z,45.50
2023-02-11T04:03:11.981Z,45.00
2023-02-11T04:05:38.912Z,44.50
2023-02-11T04:08:06.078Z,44.25
2023-02-11T04:10:32.763Z,39.00
2023-02-11T04:12:59.699Z,47.75
2023-02-11T04:15:26.487Z,49.50
2023-02-11T04:17:53.127Z,46.25
2023-02-11T04:20:19.884Z,44.25
2023-02-11T04:22:46.574Z,45.75
2023-02-11T04:25:13.216Z,43.50
2023-02-11T04:27:39.829Z,46.25
2023-02-11T04:30:08.797Z,45.50
2023-02-11T04:32:35.380Z,44.75
2023-02-11T04:35:02.952Z,44.50
2023-02-11T04:37:29.939Z,44.50
2023-02-11T04:39:56.667Z,42.00
2023-02-11T04:42:23.286Z,40.50
2023-02-11T04:44:49.929Z,46.50
2023-02-11T04:47:16.607Z,45.25
2023-02-11T04:49:43.227Z,45.50
2023-02-11T04:52:09.891Z,44.50
2023-02-11T04:54:36.514Z,45.00
2023-02-11T04:57:03.194Z,45.25
2023-02-11T04:59:29.928Z,41.25
2023-02-11T05:01:56.959Z,43.50
2023-02-11T05:04:23.769Z,42.25
2023-02-11T05:06:50.506Z,42.00
2023-02-11T05:09:17.822Z,39.75
2023-02-11T05:11:44.408Z,45.00
2023-02-11T05:14:11.112Z,42.50
2023-02-11T05:16:37.851Z,40.50
2023-02-11T05:19:04.543Z,43.00
2023-02-11T05:21:31.236Z,42.75
2023-02-11T05:23:57.916Z,39.25
2023-02-11T05:26:24.595Z,39.75
2023-02-11T05:28:51.212Z,40.75
2023-02-11T05:31:18.536Z,38.50
2023-02-11T05:33:45.301Z,38.50
2023-02-11T05:36:13.500Z,37.00
2023-02-11T05:38:40.806Z,40.00
2023-02-11T05:41:07.418Z,43.00
2023-02-11T05:43:37.399Z,40.00
2023-02-11T05:46:05.218Z,37.75
2023-02-11T05:48:32.283Z,43.00
2023-02-11T05:50:59.090Z,40.75
2023-02-11T05:53:25.821Z,41.00
2023-02-11T05:55:52.729Z,38.50
2023-02-11T05:58:19.589Z,40.75
2023-02-11T06:00:46.281Z,40.50
2023-02-11T06:03:13.003Z,43.75
2023-02-11T06:05:39.773Z,37.00
2023-02-11T06:08:06.374Z,45.75
2023-02-11T06:10:33.072Z,39.25
2023-02-11T06:12:59.678Z,40.50
2023-02-11T06:15:26.302Z,40.75
2023-02-11T06:17:52.986Z,41.00
2023-02-11T06:20:20.012Z,38.50
2023-02-11T06:22:46.999Z,42.75
2023-02-11T06:25:15.028Z,41.50
2023-02-11T06:27:41.605Z,43.25
2023-02-11T06:30:09.008Z,41.00
2023-02-11T06:32:43.930Z,42.25
2023-02-11T06:35:12.520Z,43.00
2023-02-11T06:37:39.923Z,42.50
2023-02-11T06:40:06.728Z,41.25
2023-02-11T06:42:33.380Z,41.00
2023-02-11T06:44:59.991Z,37.25
2023-02-11T06:47:26.591Z,41.25
2023-02-11T06:49:53.225Z,29.50
2023-02-11T06:52:19.822Z,42.75
2023-02-11T06:54:46.443Z,40.50
2023-02-11T06:57:13.050Z,45.50
2023-02-11T06:59:39.649Z,47.50
2023-02-11T07:02:06.250Z,43.00
2023-02-11T07:04:32.888Z,43.50
2023-02-11T07:06:59.445Z,44.75
2023-02-11T07:09:26.023Z,45.00
2023-02-11T07:11:52.794Z,46.50
2023-02-11T07:14:19.564Z,50.00
2023-02-11T07:16:46.149Z,52.75
2023-02-11T07:19:12.790Z,49.75
2023-02-11T07:21:39.419Z,51.00
2023-02-11T07:24:11.259Z,53.00
2023-02-11T07:26:38.559Z,54.00
2023-02-11T07:29:05.522Z,56.75
2023-02-11T07:31:32.532Z,51.00
2023-02-11T07:34:01.399Z,50.00
2023-02-11T07:36:29.759Z,51.50
2023-02-11T07:38:56.480Z,48.25
2023-02-11T07:41:24.078Z,50.50
2023-02-11T07:43:51.078Z,51.00
2023-02-11T07:46:23.658Z,51.25
2023-02-11T07:48:50.862Z,49.25
2023-02-11T07:51:23.089Z,50.50
2023-02-11T07:53:50.671Z,48.00
2023-02-11T07:56:18.547Z,47.00
2023-02-11T07:58:45.705Z,47.25
2023-02-11T08:01:16.622Z,48.75
2023-02-11T08:03:43.425Z,45.00
2023-02-11T08:06:15.448Z,45.00
2023-02-11T08:08:42.847Z,45.50
2023-02-11T08:11:20.843Z,46.50
2023-02-11T08:13:47.904Z,49.25
2023-02-11T08:16:35.022Z,50.25
2023-02-11T08:19:06.104Z,56.00
2023-02-11T08:21:32.926Z,51.75
2023-02-11T08:24:02.461Z,46.75
2023-02-11T08:26:31.969Z,45.75
2023-02-11T08:28:58.915Z,46.50
2023-02-11T08:31:29.674Z,51.00
2023-02-11T08:33:58.293Z,50.50
2023-02-11T08:36:29.440Z,48.75
2023-02-11T08:39:08.638Z,45.25
2023-02-11T08:41:43.493Z,46.25
2023-02-11T08:44:10.224Z,49.25
2023-02-11T08:46:36.960Z,50.00
2023-02-11T08:49:03.793Z,50.50
2023-02-11T08:51:31.596Z,50.25
2023-02-11T08:53:58.378Z,48.75
2023-02-11T08:56:25.514Z,50.75
2023-02-11T08:58:53.390Z,51.50
2023-02-11T09:01:25.984Z,51.50
2023-02-11T09:03:53.597Z,49.25
2023-02-11T09:06:22.510Z,47.25
2023-02-11T09:08:51.519Z,49.50
2023-02-11T09:11:20.954Z,48.00
2023-02-11T09:13:47.948Z,45.25
2023-02-11T09:16:23.968Z,42.25
2023-02-11T09:18:51.063Z,41.50
2023-02-11T09:21:18.945Z,35.00
2023-02-11T09:23:47.909Z,34.25
2023-02-11T09:26:19.506Z,37.25
2023-02-11T09:28:47.168Z,31.00
2023-02-11T09:31:17.739Z,32.75
2023-02-11T09:33:49.938Z,36.00
2023-02-11T09:36:20.405Z,40.00
2023-02-11T09:38:47.830Z,39.50
2023-02-11T09:41:43.807Z,35.00
2023-02-11T09:44:22.402Z,40.00
2023-02-11T09:46:58.679Z,38.75
2023-02-11T09:49:35.182Z,38.50
2023-02-11T09:52:12.309Z,39.00
2023-02-11T09:54:55.690Z,38.50
2023-02-11T09:57:28.852Z,39.50
2023-02-11T09:59:57.411Z,35.75
2023-02-11T10:02:30.113Z,38.50
2023-02-11T10:05:21.358Z,35.50
2023-02-11T10:08:09.808Z,36.00
2023-02-11T10:11:00.010Z,36.75
2023-02-11T10:13:36.102Z,36.00
2023-02-11T10:16:18.916Z,34.00
2023-02-11T10:19:19.528Z,41.00
2023-02-11T10:22:19.963Z,39.75
2023-02-11T10:25:00.226Z,39.00
2023-02-11T10:27:35.461Z,38.50
2023-02-11T10:30:09.866Z,41.75
2023-02-11T10:32:46.686Z,38.50
2023-02-11T10:35:21.308Z,37.50
2023-02-11T10:37:48.308Z,38.50
2023-02-11T10:40:18.129Z,36.00
2023-02-11T10:42:49.375Z,39.25
2023-02-11T10:45:22.303Z,37.75
2023-02-11T10:47:48.966Z,38.25
2023-02-11T10:50:31.006Z,37.50
2023-02-11T10:53:13.604Z,37.00
2023-02-11T10:55:55.942Z,33.25
2023-02-11T10:58:36.985Z,34.25
2023-02-11T11:01:08.046Z,34.50
2023-02-11T11:03:47.598Z,35.50
2023-02-11T11:06:14.664Z,34.25
2023-02-11T11:08:46.560Z,37.50
2023-02-11T11:11:16.781Z,34.00
2023-02-11T11:14:03.824Z,34.75
2023-02-11T11:16:32.659Z,32.75
2023-02-11T11:19:08.197Z,30.25
2023-02-11T11:21:37.774Z,32.00
2023-02-11T11:24:04.829Z,35.00
2023-02-11T11:26:42.433Z,32.50
2023-02-11T11:29:39.631Z,33.00
2023-02-11T11:32:15.636Z,30.25
2023-02-11T11:34:48.805Z,32.25
2023-02-11T11:37:33.075Z,31.25
2023-02-11T11:40:30.234Z,30.00
2023-02-11T11:43:15.127Z,32.00
2023-02-11T11:45:59.540Z,32.25
2023-02-11T11:48:37.233Z,36.00
2023-02-11T11:51:11.575Z,33.75
2023-02-11T11:53:50.700Z,34.75
2023-02-11T11:56:21.923Z,33.00
2023-02-11T11:58:50.018Z,2.75
2023-02-11T12:01:35.139Z,28.00
2023-02-11T12:04:19.264Z,34.50
2023-02-11T12:07:01.257Z,32.25
2023-02-11T12:09:50.822Z,31.00
2023-02-11T12:12:35.645Z,29.75
2023-02-11T12:15:20.935Z,34.25
2023-02-11T12:18:14.593Z,34.50
2023-02-11T12:21:12.331Z,32.50
2023-02-11T12:24:05.372Z,29.75
2023-02-11T12:26:35.571Z,34.50
2023-02-11T12:29:08.469Z,31.00
2023-02-11T12:31:44.278Z,29.50
2023-02-11T12:34:44.962Z,31.50
2023-02-11T12:37:58.998Z,28.25
2023-02-11T12:40:40.797Z,28.25
2023-02-11T12:43:16.691Z,27.00
2023-02-11T12:46:07.755Z,27.00
2023-02-11T12:48:59.377Z,23.75
2023-02-11T12:51:55.855Z,27.50
2023-02-11T12:54:44.591Z,26.75
2023-02-11T12:57:20.876Z,23.50
2023-02-11T13:00:25.053Z,24.75
2023-02-11T13:02:54.626Z,27.00
2023-02-11T13:05:33.774Z,22.00
2023-02-11T13:08:13.492Z,26.25
2023-02-11T13:10:48.735Z,28.00
2023-02-11T13:13:23.352Z,29.25
2023-02-11T13:16:08.071Z,30.25
2023-02-11T13:18:58.875Z,26.50
2023-02-11T13:21:57.578Z,28.50
2023-02-11T13:24:50.834Z,27.00
2023-02-11T13:27:23.772Z,31.75
2023-02-11T13:30:10.704Z,27.50
2023-02-11T13:32:55.836Z,30.50
2023-02-11T13:35:40.978Z,25.75
2023-02-11T13:38:23.935Z,30.75
2023-02-11T13:41:02.421Z,31.50
2023-02-11T13:43:30.798Z,28.25
2023-02-11T13:46:03.630Z,27.75
2023-02-11T13:48:33.570Z,26.00
2023-02-11T13:51:07.318Z,28.50
2023-02-11T13:53:55.697Z,27.25
2023-02-11T13:56:33.343Z,30.25
2023-02-11T13:59:02.698Z,27.75
2023-02-11T14:02:19.662Z,28.50
2023-02-11T14:05:27.990Z,25.75
2023-02-11T14:08:28.194Z,30.50
2023-02-11T14:10:59.013Z,28.75
2023-02-11T14:13:37.119Z,27.00
2023-02-11T14:16:10.959Z,30.00
2023-02-11T14:18:50.100Z,31.50
2023-02-11T14:21:30.802Z,30.50
2023-02-11T14:24:05.035Z,30.75
2023-02-11T14:26:42.351Z,31.00
2023-02-11T14:29:34.399Z,29.25
2023-02-11T14:32:28.605Z,28.75
2023-02-11T14:35:24.484Z,25.75
2023-02-11T14:38:14.097Z,28.50
2023-02-11T14:40:40.974Z,28.50
2023-02-11T14:43:19.969Z,22.50
2023-02-11T14:45:51.512Z,29.00
2023-02-11T14:48:20.524Z,25.75
2023-02-11T14:50:54.030Z,27.75
2023-02-11T14:53:26.155Z,22.00
2023-02-11T14:55:54.453Z,25.00
2023-02-11T14:58:22.595Z,25.00
2023-02-11T15:01:09.356Z,22.00
2023-02-11T15:03:39.080Z,22.25
2023-02-11T15:06:21.152Z,21.25
2023-02-11T15:08:58.351Z,22.75
2023-02-11T15:11:26.193Z,21.50
2023-02-11T15:13:55.730Z,26.00
2023-02-11T15:16:27.962Z,21.50
2023-02-11T15:18:58.442Z,21.75
2023-02-11T15:21:31.022Z,23.50
2023-02-11T15:24:24.091Z,21.00
2023-02-11T15:26:58.099Z,20.25
2023-02-11T15:29:26.965Z,25.00
2023-02-11T15:32:25.933Z,20.25
2023-02-11T15:34:54.261Z,22.75
2023-02-11T15:37:27.295Z,24.00
2023-02-11T15:39:54.846Z,23.25
2023-02-11T15:42:31.431Z,21.50
2023-02-11T15:45:11.940Z,20.25
2023-02-11T15:47:39.800Z,19.75
2023-02-11T15:50:06.978Z,22.00
2023-02-11T15:52:34.176Z,25.00
2023-02-11T15:55:02.885Z,25.00
2023-02-11T15:57:29.958Z,27.25
2023-02-11T15:59:57.465Z,27.50
2023-02-11T16:02:36.560Z,18.25
2023-02-11T16:05:09.557Z,21.25
2023-02-11T16:07:47.369Z,20.00
2023-02-11T16:10:33.508Z,25.75
2023-02-11T16:13:06.247Z,25.75
2023-02-11T16:15:56.641Z,21.50
2023-02-11T16:18:38.250Z,25.25
2023-02-11T16:21:07.848Z,26.50
2023-02-11T16:23:42.280Z,25.25
2023-02-11T16:26:32.161Z,24.75
2023-02-11T16:29:15.333Z,27.00
2023-02-11T16:31:47.476Z,23.00
2023-02-11T16:34:20.605Z,26.75
2023-02-11T16:36:48.403Z,25.25
2023-02-11T16:39:16.913Z,20.25
2023-02-11T16:41:44.048Z,27.75
2023-02-11T16:44:10.674Z,24.00
2023-02-11T16:46:37.860Z,24.25
2023-02-11T16:49:17.413Z,25.25
2023-02-11T16:51:47.731Z,26.25
2023-02-11T16:54:16.828Z,24.00
2023-02-11T16:56:43.687Z,25.50
2023-02-11T16:59:10.720Z,28.50
2023-02-11T17:01:39.296Z,23.00
2023-02-11T17:04:07.376Z,25.75
2023-02-11T17:06:35.107Z,25.50
2023-02-11T17:09:01.860Z,27.00
2023-02-11T17:11:28.487Z,27.00
2023-02-11T17:13:55.157Z,26.50
2023-02-11T17:16:24.941Z,22.75
2023-02-11T17:18:51.848Z,24.50
2023-02-11T17:21:18.457Z,28.00
2023-02-11T17:23:46.110Z,29.25
2023-02-11T17:26:12.908Z,24.75
2023-02-11T17:28:39.555Z,28.25
2023-02-11T17:31:09.704Z,23.75
2023-02-11T17:33:37.940Z,27.00
2023-02-11T17:36:09.602Z,27.50
2023-02-11T17:38:37.730Z,27.50
2023-02-11T17:41:05.047Z,26.25
2023-02-11T17:43:32.481Z,27.25
2023-02-11T17:45:59.233Z,25.50
2023-02-11T17:48:26.034Z,29.00
2023-02-11T17:50:52.609Z,23.75
2023-02-11T17:53:19.292Z,29.00
2023-02-11T17:55:45.982Z,24.75
2023-02-11T17:58:12.577Z,23.25
2023-02-11T18:00:39.333Z,26.00
2023-02-11T18:03:05.938Z,30.00
2023-02-11T18:05:37.132Z,26.75
2023-02-11T18:08:05.674Z,27.75
2023-02-11T18:10:33.557Z,26.25
2023-02-11T18:13:01.142Z,25.75
2023-02-11T18:15:27.866Z,29.75
2023-02-11T18:17:55.625Z,28.50
2023-02-11T18:20:22.292Z,28.25
2023-02-11T18:22:48.985Z,29.00
2023-02-11T18:25:16.182Z,28.75
2023-02-11T18:27:43.034Z,29.00
2023-02-11T18:30:15.587Z,33.00
2023-02-11T18:32:42.228Z,31.00
2023-02-11T18:35:14.860Z,30.75
2023-02-11T18:37:42.876Z,32.00
2023-02-11T18:40:10.838Z,29.50
2023-02-11T18:42:37.694Z,27.75
2023-02-11T18:45:11.665Z,30.75
2023-02-11T18:47:38.876Z,31.50
2023-02-11T18:50:07.009Z,32.75
2023-02-11T18:52:34.480Z,33.00
2023-02-11T18:55:01.047Z,33.75
2023-02-11T18:57:27.796Z,32.75
2023-02-11T18:59:54.445Z,32.75
2023-02-11T19:02:21.041Z,35.75
2023-02-11T19:04:47.694Z,36.25
2023-02-11T19:07:14.276Z,37.00
2023-02-11T19:09:40.861Z,38.75
2023-02-11T19:12:08.617Z,35.50
2023-02-11T19:14:36.133Z,39.25
2023-02-11T19:17:06.498Z,40.50
2023-02-11T19:19:35.182Z,38.50
2023-02-11T19:22:03.210Z,35.75
2023-02-11T19:24:30.283Z,34.75
2023-02-11T19:26:59.099Z,33.25
2023-02-11T19:29:26.469Z,34.75
2023-02-11T19:31:53.384Z,33.50
2023-02-11T19:34:21.046Z,30.75
2023-02-11T19:36:49.000Z,32.75
2023-02-11T19:39:15.805Z,36.00
2023-02-11T19:41:43.309Z,34.00
2023-02-11T19:44:09.995Z,35.00
2023-02-11T19:46:38.844Z,34.00
2023-02-11T19:49:05.622Z,34.00
2023-02-11T19:51:39.159Z,34.00
2023-02-11T19:54:07.674Z,34.00
2023-02-11T19:56:34.566Z,33.50
2023-02-11T19:59:02.936Z,33.50
2023-02-11T20:01:29.670Z,36.50
2023-02-11T20:03:57.509Z,38.25
2023-02-11T20:06:27.961Z,40.50
2023-02-11T20:08:58.470Z,32.25
2023-02-11T20:11:26.976Z,39.00
2023-02-11T20:13:54.265Z,36.75
2023-02-11T20:16:27.033Z,37.25
2023-02-11T20:19:00.765Z,37.00
2023-02-11T20:21:30.910Z,39.00
2023-02-11T20:23:58.551Z,42.00
2023-02-11T20:26:30.475Z,38.50
2023-02-11T20:29:00.994Z,41.50
2023-02-11T20:31:28.745Z,39.25
2023-02-11T20:33:56.617Z,39.25
2023-02-11T20:36:26.170Z,40.50
2023-02-11T20:38:54.287Z,39.50
2023-02-11T20:41:28.034Z,39.25
2023-02-11T20:43:56.084Z,41.00
2023-02-11T20:46:25.306Z,42.25
2023-02-11T20:48:53.415Z,37.25
2023-02-11T20:51:22.503Z,37.00
2023-02-11T20:53:51.247Z,37.00
2023-02-11T20:56:29.914Z,39.75
2023-02-11T20:59:00.934Z,42.75
2023-02-11T21:01:33.609Z,43.75
2023-02-11T21:04:06.377Z,39.00
2023-02-11T21:06:37.228Z,40.75
2023-02-11T21:09:05.940Z,42.00
2023-02-11T21:11:32.607Z,40.00
2023-02-11T21:13:59.987Z,54.25
2023-02-11T21:16:27.008Z,89.25
2023-02-11T21:18:55.397Z,136.00
2023-02-11T21:21:22.160Z,112.50
2023-02-11T21:23:48.779Z,65.25
2023-02-11T21:26:17.205Z,55.50
2023-02-11T21:28:44.010Z,46.00
2023-02-11T21:31:23.098Z,41.00
2023-02-11T21:33:50.870Z,39.00
2023-02-11T21:36:17.920Z,41.75
2023-02-11T21:38:44.981Z,41.25
2023-02-11T21:41:12.438Z,37.00
2023-02-11T21:43:39.075Z,41.75
2023-02-11T21:46:10.829Z,40.25
2023-02-11T21:48:37.860Z,38.25
2023-02-11T21:51:07.141Z,40.00
2023-02-11T21:53:34.409Z,45.75
2023-02-11T21:56:15.694Z,42.50
2023-02-11T21:58:42.383Z,40.50
2023-02-11T22:01:17.777Z,38.25
2023-02-11T22:03:45.906Z,40.00
2023-02-11T22:06:14.936Z,41.00
2023-02-11T22:08:41.969Z,40.00
2023-02-11T22:11:11.190Z,37.50
2023-02-11T22:13:38.310Z,42.00
2023-02-11T22:16:08.001Z,41.75
2023-02-11T22:18:34.704Z,37.50
2023-02-11T22:21:07.253Z,37.50
2023-02-11T22:23:35.004Z,37.50
2023-02-11T22:26:14.738Z,35.75
2023-02-11T22:28:41.703Z,36.75
2023-02-11T22:31:14.116Z,42.00
2023-02-11T22:33:41.048Z,38.00
2023-02-11T22:36:12.286Z,40.00
2023-02-11T22:38:39.032Z,40.75
2023-02-11T22:41:08.505Z,39.50
2023-02-11T22:43:36.228Z,39.50
2023-02-11T22:46:04.736Z,43.25
2023-02-11T22:48:32.163Z,41.25
2023-02-11T22:51:05.299Z,38.50
2023-02-11T22:53:32.004Z,38.50
2023-02-11T22:56:05.606Z,37.75
2023-02-11T22:58:32.280Z,36.25
2023-02-11T23:00:59.150Z,41.00
2023-02-11T23:03:26.306Z,41.25
2023-02-11T23:05:53.100Z,40.50
2023-02-11T23:08:20.643Z,42.00
2023-02-11T23:10:47.297Z,41.25
2023-02-11T23:13:13.952Z,38.00
2023-02-11T23:15:41.706Z,37.50
2023-02-11T23:18:09.201Z,32.75
2023-02-11T23:20:37.348Z,39.50
2023-02-11T23:23:04.318Z,38.25
2023-02-11T23:25:31.639Z,37.50
2023-02-11T23:27:58.919Z,36.75
2023-02-11T23:30:25.982Z,40.50
2023-02-11T23:32:52.914Z,37.50
2023-02-11T23:35:23.208Z,42.00
2023-02-11T23:37:51.378Z,37.75
2023-02-11T23:40:19.240Z,40.75
2023-02-11T23:42:46.135Z,37.25
2023-02-11T23:45:12.751Z,39.00
2023-02-11T23:47:39.978Z,40.00
2023-02-11T23:50:08.444Z,40.75
2023-02-11T23:52:35.495Z,38.75
2023-02-11T23:55:02.148Z,34.50
2023-02-11T23:57:28.745Z,41.00
2023-02-11T23:59:55.385Z,38.75
